createdAt,value
2022-10-23T00:01:39.929Z,102038.22
2022-10-23T00:04:15.064Z,102039.88
2022-10-23T00:06:43.355Z,102033.84
2022-10-23T00:09:13.024Z,102031.91
2022-10-23T00:11:42.521Z,102033.84
2022-10-23T00:14:11.091Z,102028.34
2022-10-23T00:16:38.444Z,102026.22
2022-10-23T00:19:06.277Z,102030.13
2022-10-23T00:21:33.361Z,102026.06
2022-10-23T00:24:00.660Z,102031.94
2022-10-23T00:26:28.392Z,102028.66
2022-10-23T00:28:55.701Z,102027.38
2022-10-23T00:31:23.959Z,102020.56
2022-10-23T00:33:51.726Z,102025.91
2022-10-23T00:36:20.744Z,102034.50
2022-10-23T00:38:50.131Z,102022.19
2022-10-23T00:41:24.256Z,102028.03
2022-10-23T00:44:31.838Z,102027.22
2022-10-23T00:47:00.172Z,102029.47
2022-10-23T00:49:28.503Z,102028.66
2022-10-23T00:52:05.776Z,102023.47
2022-10-23T00:54:37.511Z,102017.47
2022-10-23T00:57:07.605Z,102023.63
2022-10-23T00:59:35.131Z,102017.31
2022-10-23T01:02:02.346Z,102016.81
2022-10-23T01:04:30.751Z,102010.81
2022-10-23T01:07:26.734Z,102010.81
2022-10-23T01:10:16.646Z,102010.00
2022-10-23T01:13:04.948Z,102013.91
2022-10-23T01:15:41.147Z,102012.94
2022-10-23T01:18:17.356Z,102010.00
2022-10-23T01:21:09.124Z,102000.91
2022-10-23T01:24:07.305Z,102000.44
2022-10-23T01:26:55.801Z,102001.38
2022-10-23T01:29:30.258Z,102004.16
2022-10-23T01:32:13.293Z,102003.34
2022-10-23T01:34:43.317Z,102005.28
2022-10-23T01:37:15.766Z,102002.88
2022-10-23T01:39:52.242Z,102007.06
2022-10-23T01:42:30.531Z,102010.94
2022-10-23T01:45:28.179Z,102012.41
2022-10-23T01:47:56.868Z,102014.34
2022-10-23T01:50:26.486Z,102011.91
2022-10-23T01:53:00.121Z,102008.66
2022-10-23T01:55:27.558Z,102004.28
2022-10-23T01:57:57.467Z,102010.59
2022-10-23T02:00:34.272Z,102019.19
2022-10-23T02:03:04.781Z,102010.94
2022-10-23T02:05:35.153Z,102011.06
2022-10-23T02:08:05.601Z,102012.84
2022-10-23T02:11:05.047Z,102011.06
2022-10-23T02:13:42.783Z,102007.81
2022-10-23T02:16:39.738Z,102001.28
2022-10-23T02:19:30.872Z,102003.53
2022-10-23T02:22:29.026Z,102001.94
2022-10-23T02:25:09.814Z,102016.84
2022-10-23T02:27:47.300Z,102005.81
2022-10-23T02:30:18.475Z,102005.31
2022-10-23T02:32:54.095Z,101996.56
2022-10-23T02:35:26.532Z,101993.81
2022-10-23T02:38:02.794Z,101999.31
2022-10-23T02:40:39.011Z,101998.19
2022-10-23T02:43:10.841Z,101994.94
2022-10-23T02:45:54.324Z,101997.69
2022-10-23T02:48:33.049Z,101993.63
2022-10-23T02:51:18.366Z,102001.88
2022-10-23T02:53:48.513Z,102007.72
2022-10-23T02:56:38.505Z,102012.72
2022-10-23T02:59:18.303Z,102004.28
2022-10-23T03:01:53.182Z,102005.44
2022-10-23T03:04:25.985Z,102010.94
2022-10-23T03:06:53.654Z,102008.00
2022-10-23T03:09:20.775Z,102011.88
2022-10-23T03:11:48.015Z,102016.56
2022-10-23T03:14:15.451Z,102018.53
2022-10-23T03:16:42.672Z,102018.84
2022-10-23T03:21:43.759Z,102021.59
2022-10-23T03:24:11.075Z,102023.53
2022-10-23T03:26:42.453Z,102022.41
2022-10-23T03:29:10.169Z,102027.09
2022-10-23T03:31:42.869Z,102031.47
2022-10-23T03:34:11.505Z,102032.28
2022-10-23T03:36:40.929Z,102035.53
2022-10-23T03:39:10.075Z,102032.28
2022-10-23T03:41:37.155Z,102037.78
2022-10-23T03:46:36.297Z,102034.06
2022-10-23T03:49:05.978Z,102039.84
2022-10-23T03:51:33.479Z,102032.75
2022-10-23T03:54:00.543Z,102036.94
2022-10-23T03:56:28.004Z,102040.50
2022-10-23T03:58:55.184Z,102035.81
2022-10-23T04:01:24.786Z,102038.56
2022-10-23T04:03:52.225Z,102036.94
2022-10-23T04:06:19.521Z,102029.47
2022-10-23T04:08:46.756Z,102022.34
2022-10-23T04:11:17.962Z,102027.88
2022-10-23T04:13:46.580Z,102030.09
2022-10-23T04:16:13.847Z,102034.81
2022-10-23T04:18:42.280Z,102029.94
2022-10-23T04:21:11.340Z,102034.16
2022-10-23T04:23:39.251Z,102045.47
2022-10-23T04:26:12.362Z,102038.97
2022-10-23T04:28:40.059Z,102044.47
2022-10-23T04:31:07.279Z,102039.88
2022-10-23T04:33:34.454Z,102039.88
2022-10-23T04:36:01.471Z,102033.59
2022-10-23T04:38:28.681Z,102039.09
2022-10-23T04:40:55.806Z,102045.09
2022-10-23T04:43:23.224Z,102049.47
2022-10-23T04:45:50.525Z,102044.78
2022-10-23T04:48:17.827Z,102039.25
2022-10-23T04:51:19.539Z,102044.47
2022-10-23T04:54:19.071Z,102039.78
2022-10-23T04:57:02.607Z,102036.22
2022-10-23T04:59:41.095Z,102035.59
2022-10-23T05:02:08.153Z,102038.81
2022-10-23T05:04:36.285Z,102034.97
2022-10-23T05:07:32.976Z,102045.34
2022-10-23T05:10:30.313Z,102043.06
2022-10-23T05:13:12.495Z,102046.31
2022-10-23T05:15:41.400Z,102042.59
2022-10-23T05:18:14.574Z,102046.56
2022-10-23T05:20:42.675Z,102040.59
2022-10-23T05:23:13.899Z,102036.41
2022-10-23T05:25:49.709Z,102049.00
2022-10-23T05:28:18.440Z,102051.28
2022-10-23T05:30:46.727Z,102049.53
2022-10-23T05:33:14.934Z,102045.19
2022-10-23T05:35:45.431Z,102049.75
2022-10-23T05:38:16.036Z,102058.22
2022-10-23T05:40:44.159Z,102053.50
2022-10-23T05:43:17.058Z,102045.00
2022-10-23T05:45:50.193Z,102054.84
2022-10-23T05:48:36.151Z,102056.84
2022-10-23T05:51:23.738Z,102064.50
2022-10-23T05:54:10.765Z,102067.75
2022-10-23T05:57:03.310Z,102068.75
2022-10-23T05:59:43.174Z,102074.84
2022-10-23T06:02:40.562Z,102085.06
2022-10-23T06:05:24.065Z,102084.84
2022-10-23T06:08:11.122Z,102089.16
2022-10-23T06:10:38.702Z,102095.16
2022-10-23T06:13:08.267Z,102094.41
2022-10-23T06:15:35.933Z,102104.78
2022-10-23T06:18:08.514Z,102104.28
2022-10-23T06:20:40.840Z,102105.88
2022-10-23T06:23:22.419Z,102107.09
2022-10-23T06:26:14.541Z,102107.63
2022-10-23T06:28:52.886Z,102114.91
2022-10-23T06:31:20.861Z,102118.81
2022-10-23T06:33:48.586Z,102122.94
2022-10-23T06:36:16.497Z,102122.81
2022-10-23T06:38:44.184Z,102124.28
2022-10-23T06:41:19.016Z,102124.44
2022-10-23T06:43:51.731Z,102119.69
2022-10-23T06:46:30.168Z,102130.59
2022-10-23T06:49:06.926Z,102126.06
2022-10-23T06:51:43.173Z,102133.59
2022-10-23T06:54:13.321Z,102134.47
2022-10-23T06:56:58.517Z,102140.63
2022-10-23T06:59:35.840Z,102129.81
2022-10-23T07:02:06.825Z,102135.50
2022-10-23T07:04:35.187Z,102135.41
2022-10-23T07:07:07.318Z,102142.03
2022-10-23T07:09:43.537Z,102138.28
2022-10-23T07:12:23.858Z,102143.75
2022-10-23T07:15:04.336Z,102140.25
2022-10-23T07:17:31.564Z,102148.31
2022-10-23T07:19:59.464Z,102147.78
2022-10-23T07:22:27.946Z,102152.31
2022-10-23T07:25:26.433Z,102152.50
2022-10-23T07:27:55.965Z,102159.47
2022-10-23T07:30:25.576Z,102165.09
2022-10-23T07:32:55.213Z,102160.94
2022-10-23T07:35:37.136Z,102157.47
2022-10-23T07:38:14.567Z,102163.72
2022-10-23T07:40:46.338Z,102159.53
2022-10-23T07:43:18.754Z,102164.81
2022-10-23T07:45:49.811Z,102158.34
2022-10-23T07:48:25.549Z,102164.78
2022-10-23T07:51:08.260Z,102174.28
2022-10-23T07:53:40.407Z,102168.97
2022-10-23T08:00:39.033Z,102169.63
2022-10-23T08:03:13.609Z,102166.88
2022-10-23T08:05:41.848Z,102168.03
2022-10-23T08:08:41.865Z,102164.44
2022-10-23T08:11:13.533Z,102170.13
2022-10-23T08:13:49.384Z,102168.09
2022-10-23T08:16:16.995Z,102174.13
2022-10-23T08:19:13.371Z,102163.28
2022-10-23T08:21:42.016Z,102172.91
2022-10-23T08:24:15.495Z,102168.03
2022-10-23T08:26:45.548Z,102166.53
2022-10-23T08:29:14.137Z,102167.16
2022-10-23T08:31:41.640Z,102168.88
2022-10-23T08:34:16.629Z,102171.53
2022-10-23T08:36:46.153Z,102180.78
2022-10-23T08:39:13.862Z,102176.25
2022-10-23T08:41:53.454Z,102177.69
2022-10-23T08:44:40.005Z,102169.38
2022-10-23T08:47:19.364Z,102182.84
2022-10-23T08:53:22.526Z,102184.00
2022-10-23T08:56:05.330Z,102187.38
2022-10-23T08:58:41.506Z,102182.72
2022-10-23T09:01:39.015Z,102190.38
2022-10-23T09:04:07.088Z,102184.00
2022-10-23T09:06:44.270Z,102188.16
2022-10-23T09:09:32.669Z,102190.84
2022-10-23T09:12:15.426Z,102190.97
2022-10-23T09:14:54.651Z,102184.84
2022-10-23T09:17:24.847Z,102190.38
2022-10-23T09:20:11.563Z,102192.91
2022-10-23T09:22:39.306Z,102194.56
2022-10-23T09:25:18.719Z,102194.31
2022-10-23T09:27:54.717Z,102195.44
2022-10-23T09:30:42.256Z,102200.66
2022-10-23T09:33:27.068Z,102181.09
2022-10-23T09:36:20.567Z,102200.19
2022-10-23T09:38:47.716Z,102199.16
2022-10-23T09:41:18.702Z,102199.84
2022-10-23T09:43:45.970Z,102198.00
2022-10-23T09:46:13.685Z,102202.03
2022-10-23T09:48:42.600Z,102192.69
2022-10-23T09:51:17.670Z,102195.09
2022-10-23T09:53:52.604Z,102185.25
2022-10-23T09:56:27.281Z,102189.78
2022-10-23T09:58:58.978Z,102183.66
2022-10-23T10:01:29.655Z,102190.69
2022-10-23T10:04:11.282Z,102187.22
2022-10-23T10:06:38.520Z,102189.66
2022-10-23T10:09:13.946Z,102183.41
2022-10-23T10:11:50.149Z,102176.31
2022-10-23T10:14:26.582Z,102176.19
2022-10-23T10:17:06.574Z,102177.75
2022-10-23T10:20:07.014Z,102183.16
2022-10-23T10:22:51.088Z,102181.88
2022-10-23T10:25:58.604Z,102178.03
2022-10-23T10:29:04.234Z,102176.25
2022-10-23T10:32:19.532Z,102167.22
2022-10-23T10:35:12.642Z,102164.97
2022-10-23T10:37:58.702Z,102158.59
2022-10-23T10:40:55.347Z,102153.94
2022-10-23T10:43:59.162Z,102161.09
2022-10-23T10:47:11.022Z,102150.22
2022-10-23T10:49:45.433Z,102149.38
2022-10-23T10:53:00.265Z,102145.28
2022-10-23T10:55:41.030Z,102137.56
2022-10-23T10:58:40.554Z,102141.56
2022-10-23T11:01:27.652Z,102129.72
2022-10-23T11:04:07.061Z,102130.59
2022-10-23T11:06:37.540Z,102138.91
2022-10-23T11:09:40.553Z,102127.19
2022-10-23T11:12:14.892Z,102123.38
2022-10-23T11:14:43.719Z,102111.34
2022-10-23T11:17:28.001Z,102109.13
2022-10-23T11:20:34.018Z,102113.88
2022-10-23T11:23:19.574Z,102111.47
2022-10-23T11:26:20.528Z,102107.00
2022-10-23T11:29:24.890Z,102094.19
2022-10-23T11:32:17.881Z,102087.81
2022-10-23T11:35:22.572Z,102087.56
2022-10-23T11:38:22.398Z,102083.75
2022-10-23T11:41:01.339Z,102078.56
2022-10-23T11:43:33.690Z,102064.13
2022-10-23T11:46:36.091Z,102065.03
2022-10-23T11:49:09.177Z,102063.47
2022-10-23T11:51:38.778Z,102055.28
2022-10-23T11:54:24.943Z,102057.03
2022-10-23T11:57:12.264Z,102047.00
2022-10-23T11:59:48.104Z,102050.09
2022-10-23T12:02:38.995Z,102043.94
2022-10-23T12:05:32.551Z,102047.84
2022-10-23T12:08:03.344Z,102046.03
2022-10-23T12:10:36.823Z,102028.38
2022-10-23T12:13:06.794Z,102032.69
2022-10-23T12:15:36.782Z,102027.97
2022-10-23T12:18:17.933Z,102026.63
2022-10-23T12:21:04.826Z,102023.69
2022-10-23T12:24:11.041Z,102020.63
2022-10-23T12:26:59.193Z,102019.25
2022-10-23T12:29:41.226Z,102013.34
2022-10-23T12:32:26.982Z,102015.41
2022-10-23T12:35:10.045Z,102003.16
2022-10-23T12:38:20.906Z,102006.00
2022-10-23T12:41:00.276Z,101999.38
2022-10-23T12:43:31.781Z,102007.72
2022-10-23T12:46:05.614Z,102002.69
2022-10-23T12:48:33.438Z,102005.13
2022-10-23T12:51:02.196Z,102001.72
2022-10-23T12:53:29.331Z,101991.75
2022-10-23T12:55:58.002Z,102003.00
2022-10-23T12:58:32.157Z,101991.47
2022-10-23T13:01:06.202Z,101983.94
2022-10-23T13:03:35.604Z,101994.03
2022-10-23T13:06:03.698Z,101993.69
2022-10-23T13:08:39.274Z,101995.69
2022-10-23T13:11:26.314Z,101988.25
2022-10-23T13:13:55.878Z,101993.81
2022-10-23T13:16:24.903Z,101992.84
2022-10-23T13:18:53.786Z,101989.63
2022-10-23T13:21:26.730Z,101985.25
2022-10-23T13:23:54.341Z,101983.81
2022-10-23T13:26:33.785Z,101989.53
2022-10-23T13:29:07.361Z,101981.28
2022-10-23T13:31:36.148Z,101986.47
2022-10-23T13:34:05.901Z,101985.50
2022-10-23T13:36:36.929Z,101984.41
2022-10-23T13:39:11.220Z,101985.03
2022-10-23T13:41:44.579Z,101977.69
2022-10-23T13:44:14.191Z,101979.84
2022-10-23T13:46:42.600Z,101981.63
2022-10-23T13:49:09.887Z,101978.41
2022-10-23T13:51:57.202Z,101972.56
2022-10-23T13:56:56.471Z,101977.38
2022-10-23T13:59:24.082Z,101973.78
2022-10-23T14:01:51.898Z,101980.88
2022-10-23T14:04:20.261Z,101983.00
2022-10-23T14:06:47.507Z,101987.16
2022-10-23T14:09:17.623Z,101980.63
2022-10-23T14:11:44.798Z,101983.19
2022-10-23T14:14:12.165Z,101977.09
2022-10-23T14:16:39.268Z,101974.84
2022-10-23T14:19:06.821Z,101972.06
2022-10-23T14:21:33.871Z,101979.06
2022-10-23T14:24:01.098Z,101977.19
2022-10-23T14:26:30.485Z,101983.16
2022-10-23T14:29:01.054Z,101976.88
2022-10-23T14:31:32.366Z,101975.03
2022-10-23T14:34:00.998Z,101979.88
2022-10-23T14:36:38.427Z,101975.06
2022-10-23T14:39:16.461Z,101975.47
2022-10-23T14:41:44.528Z,101971.88
2022-10-23T14:44:13.762Z,101976.06
2022-10-23T14:46:40.980Z,101975.34
2022-10-23T14:49:08.018Z,101970.47
2022-10-23T14:51:35.531Z,101974.28
2022-10-23T14:54:04.976Z,101963.78
2022-10-23T14:56:36.429Z,101961.56
2022-10-23T14:59:04.322Z,101964.78
2022-10-23T15:01:34.549Z,101964.56
2022-10-23T15:04:02.210Z,101971.72
2022-10-23T15:06:29.603Z,101967.34
2022-10-23T15:08:56.815Z,101960.19
2022-10-23T15:11:25.665Z,101969.00
2022-10-23T15:13:54.914Z,101959.06
2022-10-23T15:16:24.564Z,101965.31
2022-10-23T15:18:52.171Z,101960.34
2022-10-23T15:21:19.367Z,101963.81
2022-10-23T15:23:48.782Z,101967.06
2022-10-23T15:26:21.383Z,101968.13
2022-10-23T15:28:59.157Z,101965.34
2022-10-23T15:31:37.738Z,101971.22
2022-10-23T15:34:16.312Z,101966.34
2022-10-23T15:36:47.200Z,101970.28
2022-10-23T15:39:18.329Z,101972.97
2022-10-23T15:41:45.543Z,101966.94
2022-10-23T15:44:15.981Z,101973.66
2022-10-23T15:46:43.511Z,101969.88
2022-10-23T15:49:10.845Z,101975.16
2022-10-23T15:51:39.170Z,101962.72
2022-10-23T15:54:08.037Z,101970.44
2022-10-23T15:56:35.843Z,101964.31
2022-10-23T15:59:03.426Z,101967.66
2022-10-23T16:01:30.787Z,101973.91
2022-10-23T16:03:57.940Z,101974.59
2022-10-23T16:06:25.062Z,101984.41
2022-10-23T16:11:27.811Z,101982.88
2022-10-23T16:13:56.566Z,101980.13
2022-10-23T16:16:24.574Z,101978.06
2022-10-23T16:18:53.792Z,101989.81
2022-10-23T16:21:27.648Z,101990.03
2022-10-23T16:23:58.480Z,101984.34
2022-10-23T16:26:27.408Z,101997.38
2022-10-23T16:28:59.954Z,101992.53
2022-10-23T16:31:28.488Z,101993.91
2022-10-23T16:36:30.485Z,101993.19
2022-10-23T16:39:23.899Z,101989.00
2022-10-23T16:42:10.182Z,102003.53
2022-10-23T16:45:10.058Z,102009.28
2022-10-23T16:47:37.231Z,102003.28
2022-10-23T16:50:04.823Z,102003.97
2022-10-23T16:52:32.100Z,102011.13
2022-10-23T16:54:59.378Z,102009.50
2022-10-23T16:57:28.971Z,102012.63
2022-10-23T16:59:56.135Z,102019.63
2022-10-23T17:02:23.363Z,102019.16
2022-10-23T17:04:50.630Z,102021.78
2022-10-23T17:07:17.950Z,102028.34
2022-10-23T17:09:46.843Z,102029.16
2022-10-23T17:12:14.710Z,102031.47
2022-10-23T17:14:41.985Z,102035.72
2022-10-23T17:17:10.053Z,102036.53
2022-10-23T17:19:46.480Z,102039.28
2022-10-23T17:22:14.902Z,102035.72
2022-10-23T17:24:45.149Z,102041.25
2022-10-23T17:27:14.886Z,102045.13
2022-10-23T17:29:41.961Z,102049.88
2022-10-23T17:32:09.407Z,102047.44
2022-10-23T17:34:36.594Z,102044.19
2022-10-23T17:37:04.059Z,102056.41
2022-10-23T17:39:31.240Z,102050.41
2022-10-23T17:41:59.167Z,102053.53
2022-10-23T17:44:27.320Z,102057.78
2022-10-23T17:46:55.949Z,102057.28
2022-10-23T17:49:24.658Z,102066.72
2022-10-23T17:51:54.693Z,102071.94
2022-10-23T17:54:22.714Z,102065.38
2022-10-23T17:56:50.149Z,102064.72
2022-10-23T17:59:21.368Z,102063.44
2022-10-23T18:01:50.423Z,102062.94
2022-10-23T18:04:20.019Z,102074.38
2022-10-23T18:06:50.420Z,102067.53
2022-10-23T18:09:17.748Z,102073.75
2022-10-23T18:11:49.217Z,102071.31
2022-10-23T18:14:19.280Z,102068.22
2022-10-23T18:16:46.836Z,102072.47
2022-10-23T18:19:15.643Z,102059.91
2022-10-23T18:21:42.934Z,102068.22
2022-10-23T18:24:10.540Z,102054.75
2022-10-23T18:26:39.402Z,102052.28
2022-10-23T18:29:10.923Z,102051.00
2022-10-23T18:31:38.457Z,102053.75
2022-10-23T18:36:39.845Z,102059.97
2022-10-23T18:39:10.079Z,102063.84
2022-10-23T18:41:40.162Z,102055.09
2022-10-23T18:44:07.832Z,102056.19
2022-10-23T18:46:35.117Z,102053.13
2022-10-23T18:49:02.649Z,102050.81
2022-10-23T18:51:32.370Z,102058.66
2022-10-23T18:56:31.787Z,102050.38
2022-10-23T18:59:02.015Z,102042.41
2022-10-23T19:01:30.714Z,102042.41
2022-10-23T19:04:00.291Z,102044.72
2022-10-23T19:06:28.632Z,102049.91
2022-10-23T19:08:56.015Z,102045.16
2022-10-23T19:11:25.600Z,102044.38
2022-10-23T19:13:53.240Z,102046.31
2022-10-23T19:16:38.222Z,102051.06
2022-10-23T19:19:20.188Z,102050.03
2022-10-23T19:21:49.242Z,102047.13
2022-10-23T19:24:20.875Z,102051.06
2022-10-23T19:26:49.199Z,102047.66
2022-10-23T19:29:20.565Z,102050.28
2022-10-23T19:31:49.488Z,102049.34
2022-10-23T19:34:20.226Z,102052.13
2022-10-23T19:36:48.636Z,102046.91
2022-10-23T19:39:16.634Z,102054.75
2022-10-23T19:41:44.040Z,102050.19
2022-10-23T19:44:11.947Z,102047.66
2022-10-23T19:46:41.041Z,102055.31
2022-10-23T19:49:09.499Z,102059.09
2022-10-23T19:51:38.100Z,102057.78
2022-10-23T19:54:06.398Z,102065.13
2022-10-23T19:56:33.808Z,102060.25
2022-10-23T19:59:01.251Z,102053.13
2022-10-23T20:01:28.988Z,102053.59
2022-10-23T20:03:56.906Z,102055.69
2022-10-23T20:06:27.806Z,102048.56
2022-10-23T20:08:55.368Z,102045.28
2022-10-23T20:11:29.783Z,102052.28
2022-10-23T20:13:58.935Z,102052.63
2022-10-23T20:16:32.822Z,102049.06
2022-10-23T20:19:03.765Z,102054.25
2022-10-23T20:21:31.254Z,102050.50
2022-10-23T20:23:59.094Z,102050.31
2022-10-23T20:26:26.450Z,102051.75
2022-10-23T20:28:56.222Z,102051.88
2022-10-23T20:31:26.247Z,102051.69
2022-10-23T20:33:54.990Z,102054.91
2022-10-23T20:36:36.630Z,102054.25
2022-10-23T20:39:06.695Z,102055.53
2022-10-23T20:41:37.113Z,102052.91
2022-10-23T20:44:06.142Z,102054.34
2022-10-23T20:46:34.589Z,102053.00
2022-10-23T20:49:01.770Z,102049.09
2022-10-23T20:51:30.190Z,102055.44
2022-10-23T20:53:57.470Z,102056.56
2022-10-23T20:56:32.889Z,102055.28
2022-10-23T20:59:06.318Z,102054.00
2022-10-23T21:01:36.935Z,102056.31
2022-10-23T21:04:04.416Z,102054.22
2022-10-23T21:06:51.567Z,102050.16
2022-10-23T21:09:22.616Z,102053.94
2022-10-23T21:11:50.211Z,102053.66
2022-10-23T21:14:18.999Z,102045.19
2022-10-23T21:16:46.768Z,102051.88
2022-10-23T21:19:16.248Z,102057.75
2022-10-23T21:21:43.851Z,102052.09
2022-10-23T21:24:14.911Z,102051.25
2022-10-23T21:26:42.650Z,102055.50
2022-10-23T21:29:18.376Z,102040.72
2022-10-23T21:31:51.235Z,102051.31
2022-10-23T21:34:18.319Z,102047.75
2022-10-23T21:37:11.244Z,102042.53
2022-10-23T21:39:34.511Z,102041.72
2022-10-23T21:42:01.660Z,102037.69
2022-10-23T21:44:28.906Z,102039.63
2022-10-23T21:46:56.243Z,102044.22
2022-10-23T21:49:23.459Z,102033.47
2022-10-23T21:51:50.532Z,102026.69
2022-10-23T21:54:17.722Z,102033.19
2022-10-23T21:56:49.951Z,102038.25
2022-10-23T21:59:20.391Z,102045.72
2022-10-23T22:01:49.594Z,102043.16
2022-10-23T22:04:18.277Z,102040.88
2022-10-23T22:06:47.473Z,102044.59
2022-10-23T22:09:17.546Z,102045.28
2022-10-23T22:11:45.530Z,102040.44
2022-10-23T22:14:12.630Z,102042.53
2022-10-23T22:16:39.974Z,102036.88
2022-10-23T22:19:07.060Z,102041.91
2022-10-23T22:21:34.249Z,102041.44
2022-10-23T22:24:01.436Z,102037.38
2022-10-23T22:26:36.397Z,102047.13
2022-10-23T22:29:09.800Z,102045.34
2022-10-23T22:31:38.462Z,102038.53
2022-10-23T22:34:20.146Z,102028.97
2022-10-23T22:36:55.976Z,102032.88
2022-10-23T22:39:24.334Z,102033.84
2022-10-23T22:41:51.467Z,102029.31
2022-10-23T22:44:18.912Z,102030.78
2022-10-23T22:46:46.796Z,102025.91
2022-10-23T22:49:13.932Z,102032.56
2022-10-23T22:51:41.546Z,102029.66
2022-10-23T22:54:08.608Z,102028.69
2022-10-23T22:56:36.117Z,102029.34
2022-10-23T22:59:04.625Z,102030.16
2022-10-23T23:01:33.550Z,102029.81
2022-10-23T23:04:08.877Z,102024.94
2022-10-23T23:06:48.286Z,102027.25
2022-10-23T23:09:18.134Z,102021.56
2022-10-23T23:11:51.689Z,102028.53
2022-10-23T23:14:23.583Z,102023.19
2022-10-23T23:16:53.404Z,102024.44
2022-10-23T23:19:22.680Z,102024.63
2022-10-23T23:21:50.012Z,102028.03
2022-10-23T23:24:17.278Z,102016.84
2022-10-23T23:26:44.564Z,102014.38
2022-10-23T23:29:12.008Z,102014.38
2022-10-23T23:31:39.744Z,102013.91
2022-10-23T23:34:06.935Z,102008.72
2022-10-23T23:36:35.272Z,102010.03
2022-10-23T23:41:30.038Z,102004.03
2022-10-23T23:43:58.506Z,101997.69
2022-10-23T23:46:26.659Z,102004.03
2022-10-23T23:48:53.935Z,102004.66
2022-10-23T23:51:24.032Z,102003.22
2022-10-23T23:53:52.037Z,101995.59
2022-10-23T23:56:20.044Z,102002.56
2022-10-23T23:58:47.764Z,102011.00
